createdAt,value
2016-06-15T00:00:31.096Z,0
2016-06-15T00:01:16.944Z,0
2016-06-15T00:02:16.963Z,0
2016-06-15T00:03:16.981Z,0
2016-06-15T00:04:16.984Z,0
2016-06-15T00:05:17.128Z,0
2016-06-15T00:06:17.053Z,0
2016-06-15T00:07:17.103Z,0
2016-06-15T00:08:17.106Z,0
2016-06-15T00:09:17.124Z,0
2016-06-15T00:10:17.160Z,0
2016-06-15T00:11:17.177Z,0
2016-06-15T00:12:31.384Z,0
2016-06-15T00:13:31.418Z,0
2016-06-15T00:14:17.250Z,0
2016-06-15T00:15:17.284Z,0
2016-06-15T00:16:17.303Z,0
2016-06-15T00:17:17.337Z,0
2016-06-15T00:18:17.371Z,0
2016-06-15T00:19:31.546Z,0
2016-06-15T00:20:17.268Z,0
2016-06-15T00:21:17.428Z,0
2016-06-15T00:22:17.446Z,0
2016-06-15T00:23:17.465Z,0
2016-06-15T00:24:31.670Z,0
2016-06-15T00:25:17.518Z,0
2016-06-15T00:26:17.536Z,0
2016-06-15T00:27:31.743Z,0
2016-06-15T00:28:17.589Z,0
2016-06-15T00:29:17.624Z,0
2016-06-15T00:30:17.641Z,0
2016-06-15T00:31:31.849Z,0
2016-06-15T00:32:17.695Z,0
2016-06-15T00:33:17.558Z,0
2016-06-15T00:34:17.576Z,0
2016-06-15T00:35:32.689Z,0
2016-06-15T00:36:17.786Z,0
2016-06-15T00:38:32.010Z,0
2016-06-15T00:39:17.702Z,0
2016-06-15T00:41:17.910Z,0
2016-06-15T00:42:17.929Z,0
2016-06-15T00:43:31.979Z,0
2016-06-15T00:44:17.826Z,0
2016-06-15T00:45:18.001Z,0
2016-06-15T00:46:18.020Z,0
2016-06-15T00:47:32.241Z,0
2016-06-15T00:48:18.088Z,0
2016-06-15T00:49:18.107Z,0
2016-06-15T00:50:18.125Z,0
2016-06-15T00:51:18.161Z,0
2016-06-15T00:52:18.178Z,0
2016-06-15T00:53:18.198Z,0
2016-06-15T00:54:32.404Z,0
2016-06-15T00:56:18.269Z,0
2016-06-15T00:57:18.288Z,0
2016-06-15T00:59:32.595Z,0
2016-06-15T01:00:18.479Z,0
2016-06-15T01:01:18.534Z,0
2016-06-15T01:02:18.588Z,0
2016-06-15T01:03:18.625Z,0
2016-06-15T01:04:18.672Z,0
2016-06-15T01:06:32.923Z,0
2016-06-15T01:07:18.783Z,0
2016-06-15T01:08:18.807Z,0
2016-06-15T01:09:33.019Z,0
2016-06-15T01:10:18.714Z,0
2016-06-15T01:11:18.754Z,0
2016-06-15T01:12:18.917Z,0
2016-06-15T01:13:18.955Z,0
2016-06-15T01:14:18.974Z,0
2016-06-15T01:15:33.182Z,0
2016-06-15T01:16:19.031Z,0
2016-06-15T01:17:19.066Z,0
2016-06-15T01:18:19.071Z,0
2016-06-15T01:19:19.106Z,0
2016-06-15T01:20:19.157Z,0
2016-06-15T01:21:19.161Z,0
2016-06-15T01:22:19.180Z,0
2016-06-15T01:23:19.199Z,0
2016-06-15T01:24:19.217Z,0
2016-06-15T01:25:19.236Z,0
2016-06-15T01:26:19.286Z,0
2016-06-15T01:27:19.306Z,0
2016-06-15T01:28:19.323Z,0
2016-06-15T01:29:19.187Z,0
2016-06-15T01:30:19.360Z,0
2016-06-15T01:31:33.568Z,0
2016-06-15T01:32:33.445Z,0
2016-06-15T01:33:19.433Z,0
2016-06-15T01:34:19.310Z,0
2016-06-15T01:35:20.595Z,0
2016-06-15T01:36:19.503Z,0
2016-06-15T01:37:19.539Z,0
2016-06-15T01:38:19.557Z,0
2016-06-15T01:39:19.592Z,0
2016-06-15T01:40:19.454Z,0
2016-06-15T01:42:19.679Z,0
2016-06-15T01:43:19.682Z,0
2016-06-15T01:44:19.717Z,0
2016-06-15T01:45:19.719Z,0
2016-06-15T01:46:19.753Z,0
2016-06-15T01:47:33.959Z,0
2016-06-15T01:48:19.791Z,0
2016-06-15T01:49:19.826Z,0
2016-06-15T01:50:35.172Z,0
2016-06-15T01:51:19.863Z,0
2016-06-15T01:52:19.897Z,0
2016-06-15T01:53:34.103Z,0
2016-06-15T01:54:19.950Z,0
2016-06-15T01:55:19.969Z,0
2016-06-15T01:56:19.987Z,4
2016-06-15T01:57:20.022Z,4
2016-06-15T01:58:20.087Z,4
2016-06-15T01:59:20.060Z,0
2016-06-15T02:00:20.078Z,0
2016-06-15T02:02:34.319Z,4
2016-06-15T02:03:20.166Z,4
2016-06-15T02:04:20.184Z,4
2016-06-15T02:05:20.062Z,4
2016-06-15T02:06:34.409Z,4
2016-06-15T02:07:20.240Z,4
2016-06-15T02:08:20.274Z,4
2016-06-15T02:09:20.293Z,8
2016-06-15T02:10:20.327Z,4
2016-06-15T02:11:20.347Z,8
2016-06-15T02:12:20.365Z,8
2016-06-15T02:13:20.400Z,12
2016-06-15T02:14:20.418Z,12
2016-06-15T02:15:34.624Z,12
2016-06-15T02:16:20.315Z,12
2016-06-15T02:17:20.490Z,16
2016-06-15T02:18:20.508Z,20
2016-06-15T02:19:20.527Z,20
2016-06-15T02:20:21.046Z,24
2016-06-15T02:21:20.596Z,24
2016-06-15T02:22:20.600Z,28
2016-06-15T02:23:20.633Z,32
2016-06-15T02:24:34.840Z,36
2016-06-15T02:25:20.686Z,40
2016-06-15T02:26:20.704Z,40
2016-06-15T02:27:20.739Z,48
2016-06-15T02:28:20.758Z,52
2016-06-15T02:29:20.776Z,60
2016-06-15T02:32:20.864Z,76
2016-06-15T02:34:35.073Z,88
2016-06-15T02:35:20.935Z,92
2016-06-15T02:36:20.954Z,104
2016-06-15T02:37:20.973Z,112
2016-06-15T02:38:20.991Z,120
2016-06-15T02:39:21.010Z,128
2016-06-15T02:40:21.044Z,140
2016-06-15T02:41:21.064Z,156
2016-06-15T02:42:21.097Z,172
2016-06-15T02:44:35.323Z,216
2016-06-15T02:45:21.170Z,232
2016-06-15T02:46:21.188Z,248
2016-06-15T02:47:21.051Z,264
2016-06-15T02:48:21.225Z,280
2016-06-15T02:49:21.260Z,300
2016-06-15T02:50:35.529Z,324
2016-06-15T02:51:21.156Z,340
2016-06-15T02:52:21.332Z,356
2016-06-15T02:53:21.194Z,376
2016-06-15T02:54:21.369Z,396
2016-06-15T02:55:21.404Z,412
2016-06-15T02:56:21.422Z,436
2016-06-15T02:57:21.440Z,452
2016-06-15T02:58:21.460Z,472
2016-06-15T02:59:35.665Z,500
2016-06-15T03:00:35.700Z,528
2016-06-15T03:01:21.547Z,552
2016-06-15T03:02:21.582Z,580
2016-06-15T03:03:21.600Z,612
2016-06-15T03:04:21.603Z,648
2016-06-15T03:05:22.027Z,692
2016-06-15T03:06:35.844Z,748
2016-06-15T03:07:21.675Z,780
2016-06-15T03:08:21.709Z,816
2016-06-15T03:09:21.728Z,856
2016-06-15T03:10:21.761Z,904
2016-06-15T03:11:21.765Z,944
2016-06-15T03:12:35.987Z,996
2016-06-15T03:13:21.818Z,1032
2016-06-15T03:14:21.852Z,1072
2016-06-15T03:15:36.058Z,1120
2016-06-15T03:16:36.077Z,1168
2016-06-15T03:17:21.925Z,1212
2016-06-15T03:18:21.942Z,1260
2016-06-15T03:19:21.977Z,1288
2016-06-15T03:20:36.027Z,1320
2016-06-15T03:21:22.326Z,1336
2016-06-15T03:22:36.220Z,1408
2016-06-15T03:23:22.068Z,1472
2016-06-15T03:24:22.085Z,1528
2016-06-15T03:25:36.293Z,1548
2016-06-15T03:26:22.139Z,1564
2016-06-15T03:27:22.002Z,1604
2016-06-15T03:28:22.192Z,1664
2016-06-15T03:29:22.039Z,1716
2016-06-15T03:30:22.229Z,1776
2016-06-15T03:31:22.248Z,1844
2016-06-15T03:32:22.282Z,1912
2016-06-15T03:33:36.488Z,2008
2016-06-15T03:34:22.164Z,2072
2016-06-15T03:36:22.842Z,2280
2016-06-15T03:37:36.580Z,2416
2016-06-15T03:38:22.270Z,2504
2016-06-15T03:39:22.445Z,2620
2016-06-15T03:40:22.479Z,2720
2016-06-15T03:41:22.482Z,2832
2016-06-15T03:42:22.516Z,2932
2016-06-15T03:43:22.566Z,3040
2016-06-15T03:44:22.569Z,3156
2016-06-15T03:46:36.794Z,3228
2016-06-15T03:47:22.626Z,3252
2016-06-15T03:48:22.659Z,3304
2016-06-15T03:49:22.679Z,3392
2016-06-15T03:50:22.712Z,3480
2016-06-15T03:51:22.904Z,3556
2016-06-15T03:52:22.750Z,3720
2016-06-15T03:53:22.785Z,3924
2016-06-15T03:54:22.802Z,4132
2016-06-15T03:55:22.822Z,4288
2016-06-15T03:57:22.875Z,4536
2016-06-15T03:58:37.082Z,4636
2016-06-15T03:59:22.990Z,4940
2016-06-15T04:00:22.946Z,5168
2016-06-15T04:01:22.966Z,6212
2016-06-15T04:02:37.187Z,5876
2016-06-15T04:03:23.019Z,6236
2016-06-15T04:04:22.896Z,6680
2016-06-15T04:05:23.275Z,7416
2016-06-15T04:06:23.106Z,8104
2016-06-15T04:07:23.125Z,8628
2016-06-15T04:08:23.143Z,8900
2016-06-15T04:10:23.196Z,10068
2016-06-15T04:11:23.215Z,10428
2016-06-15T04:12:23.233Z,10576
2016-06-15T04:13:23.268Z,10652
2016-06-15T04:15:23.322Z,14344
2016-06-15T04:16:23.339Z,16160
2016-06-15T04:18:23.393Z,13972
2016-06-15T04:19:23.412Z,10432
2016-06-15T04:20:24.274Z,10368
2016-06-15T04:21:24.527Z,10776
2016-06-15T04:22:23.483Z,11284
2016-06-15T04:23:23.517Z,12236
2016-06-15T04:24:23.537Z,15232
2016-06-15T04:25:37.742Z,29312
2016-06-15T04:26:23.590Z,15776
2016-06-15T04:27:23.608Z,18016
2016-06-15T04:28:23.627Z,17056
2016-06-15T04:29:23.661Z,12528
2016-06-15T04:30:23.680Z,7940
2016-06-15T04:31:23.714Z,6636
2016-06-15T04:32:23.749Z,5988
2016-06-15T04:33:37.955Z,6436
2016-06-15T04:34:37.973Z,5856
2016-06-15T04:35:37.992Z,5676
2016-06-15T04:36:24.073Z,5772
2016-06-15T04:37:23.873Z,5964
2016-06-15T04:38:23.892Z,6136
2016-06-15T04:39:23.926Z,6392
2016-06-15T04:40:23.945Z,7192
2016-06-15T04:41:38.151Z,10896
2016-06-15T04:42:23.997Z,11828
2016-06-15T04:43:24.016Z,15136
2016-06-15T04:44:24.050Z,10176
2016-06-15T04:45:23.913Z,8032
2016-06-15T04:46:24.088Z,8268
2016-06-15T04:47:24.122Z,6004
2016-06-15T04:48:24.141Z,5212
2016-06-15T04:49:38.347Z,4592
2016-06-15T04:50:24.194Z,4404
2016-06-15T04:51:24.088Z,4144
2016-06-15T04:52:24.247Z,3912
2016-06-15T04:53:24.266Z,3824
2016-06-15T04:54:24.300Z,3892
2016-06-15T04:55:24.319Z,4088
2016-06-15T04:56:24.197Z,4384
2016-06-15T04:57:38.560Z,4832
2016-06-15T04:58:24.406Z,5108
2016-06-15T04:59:24.441Z,5496
2016-06-15T05:00:24.459Z,6060
2016-06-15T05:01:24.478Z,8564
2016-06-15T05:02:24.497Z,7084
2016-06-15T05:03:24.531Z,6852
2016-06-15T05:04:24.550Z,6956
2016-06-15T05:05:24.584Z,6816
2016-06-15T05:06:25.040Z,6964
2016-06-15T05:07:24.621Z,7512
2016-06-15T05:08:24.656Z,12536
2016-06-15T05:09:24.674Z,10664
2016-06-15T05:10:24.694Z,8760
2016-06-15T05:11:24.727Z,8880
2016-06-15T05:12:38.934Z,10036
2016-06-15T05:13:24.625Z,12148
2016-06-15T05:14:24.799Z,11196
2016-06-15T05:15:24.834Z,9308
2016-06-15T05:16:24.852Z,7952
2016-06-15T05:17:39.058Z,7672
2016-06-15T05:18:24.905Z,8948
2016-06-15T05:19:24.925Z,11612
2016-06-15T05:20:24.958Z,10224
2016-06-15T05:21:25.259Z,9288
2016-06-15T05:22:25.011Z,7172
2016-06-15T05:23:39.218Z,6876
2016-06-15T05:24:25.064Z,6872
2016-06-15T05:25:25.099Z,6884
2016-06-15T05:26:25.117Z,6964
2016-06-15T05:27:25.136Z,7132
2016-06-15T05:28:25.155Z,7352
2016-06-15T05:29:25.189Z,7544
2016-06-15T05:30:25.239Z,7740
2016-06-15T05:31:25.242Z,7980
2016-06-15T05:32:25.261Z,8276
2016-06-15T05:33:25.279Z,8648
2016-06-15T05:34:25.314Z,8456
2016-06-15T05:36:25.960Z,7516
2016-06-15T05:38:25.419Z,7004
2016-06-15T05:39:39.625Z,6820
2016-06-15T05:41:25.492Z,6708
2016-06-15T05:42:25.526Z,6736
2016-06-15T05:43:25.544Z,6772
2016-06-15T05:44:39.751Z,6764
2016-06-15T05:45:25.441Z,6716
2016-06-15T05:46:25.617Z,6604
2016-06-15T05:47:25.666Z,6424
2016-06-15T05:48:25.701Z,6164
2016-06-15T05:49:25.703Z,5900
2016-06-15T05:50:25.738Z,5604
2016-06-15T05:51:26.100Z,5328
2016-06-15T05:52:25.807Z,5100
2016-06-15T05:53:25.793Z,4924
2016-06-15T05:54:25.672Z,4792
2016-06-15T05:55:25.846Z,4676
2016-06-15T05:56:25.882Z,4568
2016-06-15T05:57:25.900Z,4520
2016-06-15T05:58:25.778Z,4480
2016-06-15T05:59:25.812Z,4432
2016-06-15T06:00:40.159Z,4368
2016-06-15T06:02:26.026Z,4248
2016-06-15T06:03:26.043Z,4144
2016-06-15T06:04:26.078Z,4044
2016-06-15T06:05:26.112Z,3988
2016-06-15T06:06:25.849Z,3980
2016-06-15T06:07:26.166Z,4004
2016-06-15T06:08:40.372Z,4064
2016-06-15T06:09:26.202Z,4108
2016-06-15T06:10:26.237Z,4172
2016-06-15T06:11:40.443Z,4224
2016-06-15T06:12:26.274Z,4248
2016-06-15T06:13:26.310Z,4276
2016-06-15T06:14:26.327Z,4288
2016-06-15T06:15:26.362Z,4296
2016-06-15T06:16:40.568Z,4296
2016-06-15T06:17:26.415Z,4276
2016-06-15T06:18:26.433Z,4220
2016-06-15T06:19:26.453Z,4148
2016-06-15T06:20:26.487Z,4060
2016-06-15T06:21:26.209Z,3992
2016-06-15T06:22:26.540Z,3920
2016-06-15T06:23:26.558Z,3836
2016-06-15T06:24:26.577Z,3728
2016-06-15T06:25:26.611Z,3632
2016-06-15T06:26:26.645Z,3536
2016-06-15T06:27:40.852Z,3444
2016-06-15T06:28:26.683Z,3392
2016-06-15T06:29:26.718Z,3368
2016-06-15T06:30:26.751Z,3392
2016-06-15T06:31:26.771Z,3456
2016-06-15T06:32:40.804Z,3596
2016-06-15T06:33:26.824Z,3704
2016-06-15T06:34:26.858Z,3852
2016-06-15T06:35:26.877Z,4032
2016-06-15T06:36:27.176Z,4232
2016-06-15T06:37:26.788Z,4460
2016-06-15T06:38:26.948Z,4696
2016-06-15T06:39:26.967Z,4900
2016-06-15T06:40:26.985Z,5056
2016-06-15T06:41:27.020Z,5104
2016-06-15T06:42:26.882Z,5024
2016-06-15T06:43:27.072Z,4876
2016-06-15T06:44:32.622Z,4732
2016-06-15T06:45:27.251Z,4672
2016-06-15T06:46:27.128Z,4648
2016-06-15T06:47:41.351Z,4612
2016-06-15T06:48:41.384Z,4576
2016-06-15T06:49:27.216Z,4548
2016-06-15T06:50:27.266Z,4524
2016-06-15T06:51:27.426Z,4500
2016-06-15T06:52:27.288Z,4464
2016-06-15T06:53:41.494Z,4372
2016-06-15T06:54:27.341Z,4288
2016-06-15T06:55:27.360Z,4176
2016-06-15T06:56:27.394Z,4080
2016-06-15T06:57:27.429Z,4004
2016-06-15T06:58:27.431Z,3960
2016-06-15T06:59:27.466Z,3936
2016-06-15T07:00:27.344Z,3940
2016-06-15T07:01:27.519Z,3964
2016-06-15T07:02:27.538Z,4008
2016-06-15T07:03:27.572Z,4036
2016-06-15T07:04:27.591Z,4048
2016-06-15T07:05:27.625Z,4040
2016-06-15T07:06:27.831Z,4008
2016-06-15T07:07:27.662Z,3996
2016-06-15T07:08:27.696Z,4024
2016-06-15T07:09:27.824Z,4076
2016-06-15T07:10:27.749Z,4172
2016-06-15T07:11:27.769Z,4236
2016-06-15T07:13:42.009Z,4280
2016-06-15T07:14:27.839Z,4228
2016-06-15T07:15:27.875Z,4172
2016-06-15T07:16:27.909Z,4156
2016-06-15T07:17:42.115Z,4176
2016-06-15T07:18:27.790Z,4188
2016-06-15T07:19:42.152Z,4204
2016-06-15T07:20:27.999Z,4216
2016-06-15T07:21:27.878Z,4224
2016-06-15T07:22:28.067Z,4308
2016-06-15T07:23:28.086Z,4464
2016-06-15T07:24:42.292Z,4664
2016-06-15T07:25:28.124Z,4788
2016-06-15T07:26:28.142Z,4880
2016-06-15T07:28:28.196Z,4840
2016-06-15T07:29:28.214Z,4732
2016-06-15T07:30:28.264Z,4628
2016-06-15T07:31:28.283Z,4496
2016-06-15T07:32:28.302Z,4400
2016-06-15T07:33:28.320Z,4336
2016-06-15T07:34:28.354Z,4248
2016-06-15T07:35:42.561Z,4164
2016-06-15T07:36:28.642Z,4112
2016-06-15T07:37:29.410Z,4080
2016-06-15T07:38:28.445Z,4088
2016-06-15T07:39:28.604Z,4108
2016-06-15T07:40:28.498Z,4096
2016-06-15T07:41:28.533Z,4044
2016-06-15T07:42:28.566Z,3928
2016-06-15T07:43:28.586Z,3712
2016-06-15T07:44:28.604Z,3392
2016-06-15T07:45:42.810Z,2984
2016-06-15T07:46:28.657Z,2764
2016-06-15T07:47:28.676Z,2572
2016-06-15T07:48:28.554Z,2464
2016-06-15T07:49:28.729Z,2416
2016-06-15T07:50:28.607Z,2432
2016-06-15T07:51:43.219Z,2524
2016-06-15T07:52:28.926Z,2628
2016-06-15T07:54:43.040Z,3076
2016-06-15T07:55:28.888Z,3260
2016-06-15T07:56:28.907Z,3448
2016-06-15T07:57:28.941Z,3592
2016-06-15T07:58:28.802Z,3692
2016-06-15T07:59:28.978Z,3772
2016-06-15T08:00:43.200Z,3840
2016-06-15T08:01:29.047Z,3864
2016-06-15T08:02:29.065Z,3900
2016-06-15T08:03:43.272Z,3928
2016-06-15T08:04:29.118Z,3896
2016-06-15T08:05:29.137Z,3840
2016-06-15T08:06:29.016Z,3780
2016-06-15T08:07:43.377Z,3720
2016-06-15T08:08:29.209Z,3672
2016-06-15T08:09:29.244Z,3656
2016-06-15T08:10:29.261Z,3688
2016-06-15T08:11:29.281Z,3736
2016-06-15T08:12:29.314Z,3836
2016-06-15T08:13:43.521Z,4020
2016-06-15T08:14:29.368Z,4124
2016-06-15T08:15:29.449Z,4272
2016-06-15T08:16:29.500Z,4368
2016-06-15T08:17:29.455Z,4404
2016-06-15T08:18:29.349Z,4384
2016-06-15T08:19:29.539Z,4284
2016-06-15T08:20:29.527Z,4192
2016-06-15T08:21:31.062Z,4100
2016-06-15T08:22:43.798Z,4024
2016-06-15T08:23:30.240Z,4052
2016-06-15T08:24:29.774Z,4064
2016-06-15T08:25:29.652Z,4148
2016-06-15T08:26:29.514Z,4196
2016-06-15T08:27:29.549Z,4220
2016-06-15T08:28:29.724Z,4224
2016-06-15T08:29:43.945Z,4208
2016-06-15T08:30:29.636Z,4176
2016-06-15T08:31:29.795Z,4124
2016-06-15T08:32:29.815Z,4068
2016-06-15T08:33:29.832Z,3940
2016-06-15T08:34:29.868Z,3724
2016-06-15T08:35:29.902Z,3408
2016-06-15T08:36:29.780Z,3044
2016-06-15T08:37:30.283Z,2716
2016-06-15T08:38:29.972Z,2696
2016-06-15T08:39:30.008Z,2868
2016-06-15T08:40:30.026Z,3088
2016-06-15T08:41:30.045Z,3172
2016-06-15T08:42:30.079Z,3216
2016-06-15T08:43:30.098Z,3208
2016-06-15T08:44:30.132Z,3184
2016-06-15T08:45:30.152Z,3112
2016-06-15T08:46:44.357Z,3004
2016-06-15T08:47:30.204Z,2952
2016-06-15T08:49:30.256Z,2912
2016-06-15T08:50:30.135Z,2924
2016-06-15T08:51:31.481Z,2940
2016-06-15T08:52:30.610Z,2960
2016-06-15T08:53:30.346Z,2984
2016-06-15T08:54:44.413Z,3012
2016-06-15T08:55:30.400Z,3036
2016-06-15T08:56:30.435Z,3064
2016-06-15T08:57:30.453Z,3096
2016-06-15T08:58:30.472Z,3140
2016-06-15T08:59:30.506Z,3212
2016-06-15T09:00:30.743Z,3268
2016-06-15T09:01:33.607Z,3356
2016-06-15T09:02:30.579Z,3428
2016-06-15T09:03:30.597Z,3520
2016-06-15T09:04:30.631Z,3612
2016-06-15T09:05:30.650Z,3668
2016-06-15T09:06:31.075Z,3716
2016-06-15T09:07:30.578Z,3756
2016-06-15T09:08:30.738Z,3752
2016-06-15T09:09:30.756Z,3736
2016-06-15T09:10:44.962Z,3692
2016-06-15T09:12:30.843Z,3548
2016-06-15T09:14:30.856Z,3260
2016-06-15T09:16:04.518Z,3192
2016-06-15T09:16:30.924Z,3160
2016-06-15T09:17:30.958Z,3156
2016-06-15T09:18:30.978Z,3196
2016-06-15T09:19:31.011Z,3284
2016-06-15T09:20:31.030Z,3304
2016-06-15T09:21:31.065Z,3380
2016-06-15T09:22:30.927Z,3352
2016-06-15T09:23:31.102Z,3328
2016-06-15T09:24:31.120Z,3288
2016-06-15T09:25:31.155Z,3172
2016-06-15T09:26:45.220Z,3180
2016-06-15T09:27:31.193Z,3308
2016-06-15T09:28:31.242Z,3484
2016-06-15T09:29:31.255Z,3644
2016-06-15T09:30:31.274Z,3732
2016-06-15T09:31:31.168Z,3784
2016-06-15T09:32:45.515Z,3772
2016-06-15T09:33:31.206Z,3752
2016-06-15T09:34:31.380Z,3692
2016-06-15T09:35:45.587Z,3620
2016-06-15T09:36:45.621Z,3668
2016-06-15T09:37:31.467Z,3660
2016-06-15T09:38:31.485Z,3636
2016-06-15T09:39:31.504Z,3672
2016-06-15T09:40:31.524Z,3720
2016-06-15T09:41:31.558Z,3740
2016-06-15T09:42:45.764Z,3656
2016-06-15T09:43:31.595Z,3632
2016-06-15T09:44:31.629Z,3628
2016-06-15T09:45:31.665Z,3700
2016-06-15T09:46:45.870Z,3752
2016-06-15T09:47:31.717Z,3764
2016-06-15T09:48:31.579Z,3816
2016-06-15T09:49:31.786Z,3824
2016-06-15T09:50:46.007Z,3752
2016-06-15T09:51:45.839Z,3728
2016-06-15T09:52:32.545Z,3636
2016-06-15T09:53:32.423Z,3384
2016-06-15T09:54:31.878Z,3136
2016-06-15T09:55:31.898Z,2840
2016-06-15T09:56:31.932Z,2396
2016-06-15T09:57:46.138Z,1900
2016-06-15T09:58:31.985Z,1796
2016-06-15T09:59:31.864Z,1704
2016-06-15T10:00:32.022Z,1680
2016-06-15T10:01:32.056Z,1784
2016-06-15T10:02:32.091Z,1872
2016-06-15T10:03:32.125Z,2016
2016-06-15T10:04:32.163Z,2076
2016-06-15T10:05:32.221Z,2152
2016-06-15T10:06:46.827Z,2320
2016-06-15T10:07:32.730Z,2504
2016-06-15T10:08:32.413Z,2664
2016-06-15T10:10:32.524Z,2984
2016-06-15T10:11:33.071Z,3200
2016-06-15T10:12:32.589Z,3488
2016-06-15T10:14:32.667Z,4084
2016-06-15T10:15:32.675Z,4172
2016-06-15T10:16:34.558Z,4120
2016-06-15T10:17:50.700Z,4160
2016-06-15T10:18:32.810Z,4276
2016-06-15T10:19:32.801Z,4440
2016-06-15T10:20:32.822Z,4592
2016-06-15T10:21:47.202Z,4632
2016-06-15T10:22:33.191Z,4528
2016-06-15T10:23:47.087Z,4252
2016-06-15T10:24:32.934Z,4152
2016-06-15T10:26:32.989Z,4428
2016-06-15T10:28:33.042Z,4780
2016-06-15T10:29:50.249Z,5112
2016-06-15T10:30:33.096Z,5272
2016-06-15T10:32:33.150Z,5848
2016-06-15T10:33:33.184Z,6108
2016-06-15T10:34:33.188Z,6404
2016-06-15T10:35:36.144Z,6756
2016-06-15T10:36:48.272Z,7088
2016-06-15T10:37:58.575Z,7388
2016-06-15T10:39:04.703Z,7700
2016-06-15T10:41:21.710Z,8244
2016-06-15T10:42:18.119Z,8448
2016-06-15T10:42:57.682Z,8552
2016-06-15T10:43:46.779Z,8596
2016-06-15T10:44:46.641Z,8652
2016-06-15T10:46:01.472Z,8788
2016-06-15T10:47:35.556Z,8928
2016-06-15T10:48:33.841Z,8972
2016-06-15T10:49:19.766Z,8968
2016-06-15T10:50:24.082Z,8912
2016-06-15T10:51:24.991Z,8764
2016-06-15T10:52:30.463Z,8664
2016-06-15T10:54:02.778Z,8568
2016-06-15T10:55:18.347Z,8684
2016-06-15T10:55:56.159Z,8732
2016-06-15T10:56:32.303Z,8784
2016-06-15T10:57:32.322Z,8896
2016-06-15T10:58:46.372Z,8892
2016-06-15T10:59:32.376Z,8884
2016-06-15T11:00:46.582Z,8932
2016-06-15T11:01:32.428Z,8896
2016-06-15T11:03:32.481Z,8812
2016-06-15T11:04:32.500Z,8632
2016-06-15T11:05:32.534Z,8576
2016-06-15T11:06:47.163Z,8524
2016-06-15T11:07:33.353Z,8492
2016-06-15T11:08:46.793Z,8380
2016-06-15T11:09:32.641Z,8280
2016-06-15T11:11:46.866Z,8132
2016-06-15T11:12:33.947Z,8212
2016-06-15T11:13:32.731Z,8384
2016-06-15T11:14:32.764Z,8488
2016-06-15T11:16:47.006Z,8060
2016-06-15T11:17:32.837Z,8008
2016-06-15T11:18:32.856Z,7980
2016-06-15T11:19:32.890Z,8192
2016-06-15T11:20:32.769Z,8516
2016-06-15T11:21:32.959Z,8864
2016-06-15T11:22:33.383Z,8936
2016-06-15T11:23:32.995Z,8916
2016-06-15T11:24:33.031Z,8744
2016-06-15T11:25:33.048Z,8392
2016-06-15T11:26:33.068Z,8184
2016-06-15T11:28:33.135Z,7508
2016-06-15T11:29:32.999Z,7072
2016-06-15T11:30:33.017Z,6696
2016-06-15T11:32:47.414Z,6744
2016-06-15T11:33:33.261Z,6724
2016-06-15T11:34:33.279Z,6564
2016-06-15T11:35:33.315Z,6176
2016-06-15T11:36:33.349Z,5920
2016-06-15T11:37:33.663Z,5748
2016-06-15T11:38:33.385Z,5668
2016-06-15T11:39:33.419Z,5756
2016-06-15T11:40:33.438Z,5760
2016-06-15T11:41:33.489Z,5824
2016-06-15T11:42:47.679Z,5976
2016-06-15T11:43:33.526Z,6108
2016-06-15T11:44:33.545Z,6216
2016-06-15T11:45:33.579Z,6280
2016-06-15T11:46:33.599Z,6336
2016-06-15T11:47:47.804Z,6352
2016-06-15T11:48:33.651Z,6312
2016-06-15T11:49:33.530Z,6304
2016-06-15T11:50:33.703Z,6308
2016-06-15T11:51:33.723Z,6384
2016-06-15T11:52:48.929Z,6564
2016-06-15T11:53:33.776Z,6668
2016-06-15T11:54:47.982Z,6892
2016-06-15T11:55:33.843Z,7004
2016-06-15T11:56:33.863Z,7120
2016-06-15T11:57:48.069Z,7128
2016-06-15T11:58:33.916Z,6980
2016-06-15T11:59:48.123Z,6848
2016-06-15T12:00:33.953Z,6856
2016-06-15T12:01:33.988Z,6756
2016-06-15T12:02:34.023Z,6652
2016-06-15T12:03:34.041Z,6476
2016-06-15T12:04:33.919Z,6272
2016-06-15T12:05:34.093Z,6072
2016-06-15T12:06:48.300Z,5856
2016-06-15T12:07:34.302Z,5628
2016-06-15T12:08:34.181Z,5368
2016-06-15T12:09:34.200Z,5200
2016-06-15T12:10:34.219Z,5024
2016-06-15T12:11:48.284Z,4872
2016-06-15T12:12:48.318Z,4888
2016-06-15T12:13:34.306Z,4896
2016-06-15T12:14:34.357Z,4844
2016-06-15T12:16:34.377Z,5080
2016-06-15T12:17:34.411Z,5020
2016-06-15T12:18:34.431Z,4904
2016-06-15T12:19:48.653Z,4964
2016-06-15T12:20:34.484Z,5080
2016-06-15T12:21:34.346Z,5244
2016-06-15T12:22:49.114Z,5336
2016-06-15T12:23:34.555Z,5252
2016-06-15T12:24:34.590Z,5120
2016-06-15T12:25:34.608Z,4932
2016-06-15T12:26:34.658Z,4720
2016-06-15T12:27:48.849Z,4600
2016-06-15T12:28:34.680Z,4564
2016-06-15T12:30:48.921Z,4336
2016-06-15T12:31:34.768Z,4176
2016-06-15T12:32:34.801Z,4104
2016-06-15T12:33:34.820Z,4096
2016-06-15T12:34:34.683Z,4084
2016-06-15T12:35:49.061Z,4020
2016-06-15T12:36:34.891Z,4216
2016-06-15T12:37:35.052Z,4632
2016-06-15T12:38:34.945Z,4972
2016-06-15T12:39:34.823Z,5176
2016-06-15T12:40:49.187Z,5192
2016-06-15T12:41:35.032Z,5472
2016-06-15T12:42:34.895Z,5908
2016-06-15T12:43:34.929Z,6492
2016-06-15T12:45:34.967Z,7816
2016-06-15T12:46:49.330Z,8292
2016-06-15T12:47:35.192Z,8372
2016-06-15T12:48:35.210Z,8232
2016-06-15T12:49:35.229Z,8336
2016-06-15T12:50:35.263Z,8268
2016-06-15T12:51:49.470Z,8144
2016-06-15T12:52:35.316Z,8044
2016-06-15T12:53:35.351Z,7952
2016-06-15T12:54:35.370Z,7960
2016-06-15T12:55:35.388Z,7960
2016-06-15T12:56:35.406Z,7836
2016-06-15T12:57:35.441Z,7552
2016-06-15T12:58:35.476Z,7116
2016-06-15T12:59:35.495Z,6276
2016-06-15T13:00:35.513Z,5116
2016-06-15T13:01:35.547Z,4768
2016-06-15T13:02:35.566Z,5300
2016-06-15T13:03:35.632Z,5896
2016-06-15T13:04:49.806Z,6644
2016-06-15T13:05:35.653Z,7120
2016-06-15T13:06:35.516Z,7648
2016-06-15T13:07:50.347Z,7908
2016-06-15T13:08:35.725Z,7948
2016-06-15T13:09:35.760Z,7972
2016-06-15T13:10:35.793Z,8056
2016-06-15T13:11:35.812Z,7924
2016-06-15T13:12:35.831Z,7656
2016-06-15T13:13:35.865Z,7192
2016-06-15T13:14:35.884Z,7052
2016-06-15T13:15:35.919Z,7068
2016-06-15T13:16:35.968Z,7188
2016-06-15T13:17:35.956Z,7236
2016-06-15T13:18:35.990Z,6984
2016-06-15T13:19:36.024Z,6716
2016-06-15T13:20:36.060Z,6876
2016-06-15T13:21:36.077Z,7040
2016-06-15T13:22:50.283Z,7256
2016-06-15T13:23:36.131Z,7624
2016-06-15T13:24:50.336Z,8260
2016-06-15T13:25:36.184Z,8588
2016-06-15T13:26:36.203Z,8960
2016-06-15T13:27:36.237Z,9240
2016-06-15T13:28:50.442Z,9512
2016-06-15T13:29:36.133Z,9664
2016-06-15T13:31:36.343Z,9976
2016-06-15T13:33:50.583Z,10264
2016-06-15T13:34:36.415Z,10320
2016-06-15T13:35:36.448Z,10392
2016-06-15T13:36:36.468Z,10356
2016-06-15T13:37:36.549Z,10320
2016-06-15T13:38:36.521Z,10204
2016-06-15T13:39:36.554Z,10136
2016-06-15T13:40:36.574Z,10076
2016-06-15T13:41:36.608Z,10036
2016-06-15T13:42:50.814Z,10024
2016-06-15T13:43:36.661Z,9952
2016-06-15T13:44:36.696Z,9908
2016-06-15T13:45:36.557Z,10116
2016-06-15T13:47:50.955Z,10248
2016-06-15T13:48:36.646Z,9944
2016-06-15T13:49:36.836Z,9824
2016-06-15T13:50:36.855Z,9912
2016-06-15T13:51:36.872Z,10016
2016-06-15T13:52:37.095Z,10136
2016-06-15T13:53:36.786Z,10324
2016-06-15T13:54:51.132Z,10576
2016-06-15T13:55:36.995Z,10708
2016-06-15T13:56:37.013Z,10752
2016-06-15T13:57:51.235Z,10924
2016-06-15T13:58:37.082Z,11052
2016-06-15T13:59:37.100Z,10740
2016-06-15T14:00:37.119Z,10524
2016-06-15T14:01:37.138Z,10392
2016-06-15T14:02:51.360Z,10328
2016-06-15T14:03:37.206Z,10364
2016-06-15T14:04:37.226Z,10600
2016-06-15T14:05:37.260Z,10992
2016-06-15T14:06:37.294Z,10948
2016-06-15T14:07:37.375Z,10864
2016-06-15T14:08:37.847Z,10372
2016-06-15T14:10:51.588Z,10780
2016-06-15T14:11:37.419Z,10880
2016-06-15T14:12:37.454Z,10548
2016-06-15T14:13:37.487Z,10764
2016-06-15T14:14:37.507Z,10812
2016-06-15T14:15:37.541Z,10804
2016-06-15T14:16:37.560Z,10800
2016-06-15T14:17:37.594Z,10876